sensor_id;sensor_type;location;lat;lon;timestamp;temperature;humidity
65478;SHT31;53678;39.642;22.430;2024-02-21T00:02:11;10.33;87.31
65478;SHT31;53678;39.642;22.430;2024-02-21T00:04:37;10.31;87.30
65478;SHT31;53678;39.642;22.430;2024-02-21T00:07:04;10.30;87.22
65478;SHT31;53678;39.642;22.430;2024-02-21T00:09:30;10.34;87.29
65478;SHT31;53678;39.642;22.430;2024-02-21T00:11:56;10.41;87.01
65478;SHT31;53678;39.642;22.430;2024-02-21T00:14:23;10.45;86.83
65478;SHT31;53678;39.642;22.430;2024-02-21T00:16:48;10.30;87.00
65478;SHT31;53678;39.642;22.430;2024-02-21T00:19:14;10.04;88.10
65478;SHT31;53678;39.642;22.430;2024-02-21T00:21:40;10.03;88.13
65478;SHT31;53678;39.642;22.430;2024-02-21T00:24:06;10.02;88.20
65478;SHT31;53678;39.642;22.430;2024-02-21T00:26:32;10.09;88.02
65478;SHT31;53678;39.642;22.430;2024-02-21T00:28:57;10.20;87.53
65478;SHT31;53678;39.642;22.430;2024-02-21T00:31:23;10.27;87.12
65478;SHT31;53678;39.642;22.430;2024-02-21T00:33:49;10.25;86.90
65478;SHT31;53678;39.642;22.430;2024-02-21T00:36:16;10.27;87.22
65478;SHT31;53678;39.642;22.430;2024-02-21T00:38:42;10.17;87.67
65478;SHT31;53678;39.642;22.430;2024-02-21T00:41:07;10.03;88.19
65478;SHT31;53678;39.642;22.430;2024-02-21T00:43:33;10.09;88.37
65478;SHT31;53678;39.642;22.430;2024-02-21T00:45:59;9.94;89.04
65478;SHT31;53678;39.642;22.430;2024-02-21T00:48:25;10.02;89.11
65478;SHT31;53678;39.642;22.430;2024-02-21T00:50:50;10.09;88.57
65478;SHT31;53678;39.642;22.430;2024-02-21T00:53:18;10.16;88.21
65478;SHT31;53678;39.642;22.430;2024-02-21T00:55:44;10.17;87.99
65478;SHT31;53678;39.642;22.430;2024-02-21T00:58:09;10.25;87.79
65478;SHT31;53678;39.642;22.430;2024-02-21T01:00:35;10.27;87.82
65478;SHT31;53678;39.642;22.430;2024-02-21T01:03:01;10.29;87.61
65478;SHT31;53678;39.642;22.430;2024-02-21T01:05:27;10.33;87.49
65478;SHT31;53678;39.642;22.430;2024-02-21T01:07:54;10.30;87.65
65478;SHT31;53678;39.642;22.430;2024-02-21T01:10:20;10.36;87.46
65478;SHT31;53678;39.642;22.430;2024-02-21T01:12:45;10.31;87.27
65478;SHT31;53678;39.642;22.430;2024-02-21T01:15:11;10.29;86.77
65478;SHT31;53678;39.642;22.430;2024-02-21T01:17:37;10.40;85.97
65478;SHT31;53678;39.642;22.430;2024-02-21T01:20:03;10.44;85.82
65478;SHT31;53678;39.642;22.430;2024-02-21T01:22:31;10.50;85.37
65478;SHT31;53678;39.642;22.430;2024-02-21T01:24:57;10.60;85.80
65478;SHT31;53678;39.642;22.430;2024-02-21T01:27:22;10.57;85.49
65478;SHT31;53678;39.642;22.430;2024-02-21T01:29:48;10.36;86.25
65478;SHT31;53678;39.642;22.430;2024-02-21T01:32:15;10.24;87.21
65478;SHT31;53678;39.642;22.430;2024-02-21T01:34:41;10.21;86.83
65478;SHT31;53678;39.642;22.430;2024-02-21T01:37:08;10.30;86.38
65478;SHT31;53678;39.642;22.430;2024-02-21T01:39:34;10.20;87.03
65478;SHT31;53678;39.642;22.430;2024-02-21T01:42:00;10.11;87.22
65478;SHT31;53678;39.642;22.430;2024-02-21T01:44:25;10.11;87.56
65478;SHT31;53678;39.642;22.430;2024-02-21T01:46:52;10.13;87.66
65478;SHT31;53678;39.642;22.430;2024-02-21T01:49:19;10.13;87.93
65478;SHT31;53678;39.642;22.430;2024-02-21T01:51:46;10.14;87.94
65478;SHT31;53678;39.642;22.430;2024-02-21T01:54:14;10.31;87.06
65478;SHT31;53678;39.642;22.430;2024-02-21T01:56:42;10.37;87.09
65478;SHT31;53678;39.642;22.430;2024-02-21T01:59:08;10.40;87.12
65478;SHT31;53678;39.642;22.430;2024-02-21T02:01:34;10.47;86.85
65478;SHT31;53678;39.642;22.430;2024-02-21T02:04:02;10.38;86.35
65478;SHT31;53678;39.642;22.430;2024-02-21T02:06:31;10.16;87.65
65478;SHT31;53678;39.642;22.430;2024-02-21T02:08:57;10.02;88.76
65478;SHT31;53678;39.642;22.430;2024-02-21T02:11:22;9.85;89.06
65478;SHT31;53678;39.642;22.430;2024-02-21T02:13:48;9.86;89.39
65478;SHT31;53678;39.642;22.430;2024-02-21T02:16:14;9.85;89.24
65478;SHT31;53678;39.642;22.430;2024-02-21T02:18:39;9.89;89.31
65478;SHT31;53678;39.642;22.430;2024-02-21T02:21:13;9.94;88.76
65478;SHT31;53678;39.642;22.430;2024-02-21T02:23:41;10.00;88.42
65478;SHT31;53678;39.642;22.430;2024-02-21T02:26:07;10.06;88.49
65478;SHT31;53678;39.642;22.430;2024-02-21T02:28:33;10.04;88.09
65478;SHT31;53678;39.642;22.430;2024-02-21T02:31:00;9.99;88.42
65478;SHT31;53678;39.642;22.430;2024-02-21T02:33:25;10.00;88.68
65478;SHT31;53678;39.642;22.430;2024-02-21T02:35:51;10.00;88.58
65478;SHT31;53678;39.642;22.430;2024-02-21T02:38:17;10.02;88.20
65478;SHT31;53678;39.642;22.430;2024-02-21T02:40:42;10.20;88.06
65478;SHT31;53678;39.642;22.430;2024-02-21T02:43:08;10.21;86.79
65478;SHT31;53678;39.642;22.430;2024-02-21T02:45:34;10.33;86.43
65478;SHT31;53678;39.642;22.430;2024-02-21T02:48:00;10.29;86.33
65478;SHT31;53678;39.642;22.430;2024-02-21T02:50:26;10.29;86.42
65478;SHT31;53678;39.642;22.430;2024-02-21T02:52:53;10.27;86.55
65478;SHT31;53678;39.642;22.430;2024-02-21T02:55:19;10.29;86.52
65478;SHT31;53678;39.642;22.430;2024-02-21T02:57:45;10.31;86.59
65478;SHT31;53678;39.642;22.430;2024-02-21T03:00:11;10.23;86.83
65478;SHT31;53678;39.642;22.430;2024-02-21T03:02:38;10.02;87.62
65478;SHT31;53678;39.642;22.430;2024-02-21T03:05:16;9.92;88.40
65478;SHT31;53678;39.642;22.430;2024-02-21T03:07:42;9.78;88.64
65478;SHT31;53678;39.642;22.430;2024-02-21T03:10:09;9.86;88.81
65478;SHT31;53678;39.642;22.430;2024-02-21T03:12:35;9.89;87.89
65478;SHT31;53678;39.642;22.430;2024-02-21T03:15:03;9.81;87.89
65478;SHT31;53678;39.642;22.430;2024-02-21T03:17:29;9.90;87.55
65478;SHT31;53678;39.642;22.430;2024-02-21T03:19:55;9.92;87.32
65478;SHT31;53678;39.642;22.430;2024-02-21T03:22:22;10.11;86.57
65478;SHT31;53678;39.642;22.430;2024-02-21T03:24:48;10.04;87.03
65478;SHT31;53678;39.642;22.430;2024-02-21T03:27:14;9.96;87.51
65478;SHT31;53678;39.642;22.430;2024-02-21T03:29:39;9.86;87.72
65478;SHT31;53678;39.642;22.430;2024-02-21T03:32:05;9.78;88.20
65478;SHT31;53678;39.642;22.430;2024-02-21T03:34:30;9.72;88.36
65478;SHT31;53678;39.642;22.430;2024-02-21T03:36:56;9.73;88.49
65478;SHT31;53678;39.642;22.430;2024-02-21T03:39:22;9.69;88.51
65478;SHT31;53678;39.642;22.430;2024-02-21T03:41:48;9.69;88.61
65478;SHT31;53678;39.642;22.430;2024-02-21T03:44:14;9.52;89.07
65478;SHT31;53678;39.642;22.430;2024-02-21T03:46:41;9.30;89.79
65478;SHT31;53678;39.642;22.430;2024-02-21T03:49:06;9.32;89.56
65478;SHT31;53678;39.642;22.430;2024-02-21T03:51:32;9.42;89.42
65478;SHT31;53678;39.642;22.430;2024-02-21T03:53:58;9.44;89.20
65478;SHT31;53678;39.642;22.430;2024-02-21T03:56:23;9.49;89.30
65478;SHT31;53678;39.642;22.430;2024-02-21T03:58:50;9.55;89.35
65478;SHT31;53678;39.642;22.430;2024-02-21T04:01:16;9.24;90.83
65478;SHT31;53678;39.642;22.430;2024-02-21T04:03:43;9.17;91.80
65478;SHT31;53678;39.642;22.430;2024-02-21T04:06:09;9.08;91.69
65478;SHT31;53678;39.642;22.430;2024-02-21T04:08:35;9.04;92.10
65478;SHT31;53678;39.642;22.430;2024-02-21T04:11:01;8.96;92.39
65478;SHT31;53678;39.642;22.430;2024-02-21T04:13:26;8.90;92.88
65478;SHT31;53678;39.642;22.430;2024-02-21T04:15:52;9.01;92.47
65478;SHT31;53678;39.642;22.430;2024-02-21T04:18:18;9.01;92.39
65478;SHT31;53678;39.642;22.430;2024-02-21T04:20:44;9.00;92.52
65478;SHT31;53678;39.642;22.430;2024-02-21T04:23:09;8.99;92.27
65478;SHT31;53678;39.642;22.430;2024-02-21T04:25:35;9.03;92.48
65478;SHT31;53678;39.642;22.430;2024-02-21T04:28:01;9.07;92.38
65478;SHT31;53678;39.642;22.430;2024-02-21T04:30:27;9.08;92.31
65478;SHT31;53678;39.642;22.430;2024-02-21T04:32:53;9.11;92.05
65478;SHT31;53678;39.642;22.430;2024-02-21T04:35:19;9.14;92.03
65478;SHT31;53678;39.642;22.430;2024-02-21T04:37:45;9.28;91.73
65478;SHT31;53678;39.642;22.430;2024-02-21T04:40:12;9.30;91.31
65478;SHT31;53678;39.642;22.430;2024-02-21T04:42:39;9.32;91.08
65478;SHT31;53678;39.642;22.430;2024-02-21T04:45:06;9.32;90.97
65478;SHT31;53678;39.642;22.430;2024-02-21T04:47:32;9.34;90.93
65478;SHT31;53678;39.642;22.430;2024-02-21T04:49:58;9.36;91.10
65478;SHT31;53678;39.642;22.430;2024-02-21T04:52:24;9.39;90.89
65478;SHT31;53678;39.642;22.430;2024-02-21T04:54:50;9.42;90.88
65478;SHT31;53678;39.642;22.430;2024-02-21T04:57:18;9.44;90.59
65478;SHT31;53678;39.642;22.430;2024-02-21T04:59:50;9.31;90.64
65478;SHT31;53678;39.642;22.430;2024-02-21T05:02:49;9.32;90.92
65478;SHT31;53678;39.642;22.430;2024-02-21T05:05:15;9.35;90.50
65478;SHT31;53678;39.642;22.430;2024-02-21T05:07:42;9.39;90.56
65478;SHT31;53678;39.642;22.430;2024-02-21T05:10:08;9.45;90.16
65478;SHT31;53678;39.642;22.430;2024-02-21T05:12:35;9.55;89.64
65478;SHT31;53678;39.642;22.430;2024-02-21T05:15:01;9.52;89.55
65478;SHT31;53678;39.642;22.430;2024-02-21T05:17:27;9.52;89.93
65478;SHT31;53678;39.642;22.430;2024-02-21T05:19:53;9.52;89.80
65478;SHT31;53678;39.642;22.430;2024-02-21T05:22:18;9.51;89.86
65478;SHT31;53678;39.642;22.430;2024-02-21T05:24:44;9.56;89.82
65478;SHT31;53678;39.642;22.430;2024-02-21T05:27:10;9.61;89.67
65478;SHT31;53678;39.642;22.430;2024-02-21T05:29:35;9.62;89.23
65478;SHT31;53678;39.642;22.430;2024-02-21T05:32:01;9.63;89.31
65478;SHT31;53678;39.642;22.430;2024-02-21T05:34:27;9.68;89.43
65478;SHT31;53678;39.642;22.430;2024-02-21T05:36:53;9.69;88.97
65478;SHT31;53678;39.642;22.430;2024-02-21T05:39:19;9.72;88.71
65478;SHT31;53678;39.642;22.430;2024-02-21T05:41:45;9.81;88.35
65478;SHT31;53678;39.642;22.430;2024-02-21T05:44:11;9.87;88.04
65478;SHT31;53678;39.642;22.430;2024-02-21T05:46:37;10.02;87.78
65478;SHT31;53678;39.642;22.430;2024-02-21T05:49:03;10.38;86.91
65478;SHT31;53678;39.642;22.430;2024-02-21T05:51:32;10.38;86.50
65478;SHT31;53678;39.642;22.430;2024-02-21T05:53:58;10.47;86.70
65478;SHT31;53678;39.642;22.430;2024-02-21T05:56:24;10.48;85.91
65478;SHT31;53678;39.642;22.430;2024-02-21T05:58:50;10.42;86.61
65478;SHT31;53678;39.642;22.430;2024-02-21T06:01:15;10.36;87.35
65478;SHT31;53678;39.642;22.430;2024-02-21T06:03:41;10.31;87.57
65478;SHT31;53678;39.642;22.430;2024-02-21T06:06:08;10.37;87.51
65478;SHT31;53678;39.642;22.430;2024-02-21T06:08:33;10.38;87.37
65478;SHT31;53678;39.642;22.430;2024-02-21T06:11:01;10.40;86.91
65478;SHT31;53678;39.642;22.430;2024-02-21T06:13:26;10.37;86.85
65478;SHT31;53678;39.642;22.430;2024-02-21T06:15:53;10.44;86.76
65478;SHT31;53678;39.642;22.430;2024-02-21T06:18:20;10.47;86.55
65478;SHT31;53678;39.642;22.430;2024-02-21T06:20:46;10.62;86.30
65478;SHT31;53678;39.642;22.430;2024-02-21T06:23:13;10.72;86.11
65478;SHT31;53678;39.642;22.430;2024-02-21T06:25:39;10.62;85.51
65478;SHT31;53678;39.642;22.430;2024-02-21T06:28:05;10.64;85.72
65478;SHT31;53678;39.642;22.430;2024-02-21T06:30:32;10.71;85.74
65478;SHT31;53678;39.642;22.430;2024-02-21T06:32:58;10.83;85.59
65478;SHT31;53678;39.642;22.430;2024-02-21T06:35:24;10.89;84.49
65478;SHT31;53678;39.642;22.430;2024-02-21T06:37:51;10.92;84.78
65478;SHT31;53678;39.642;22.430;2024-02-21T06:40:23;10.96;84.84
65478;SHT31;53678;39.642;22.430;2024-02-21T06:42:50;10.89;85.39
65478;SHT31;53678;39.642;22.430;2024-02-21T06:45:16;10.99;84.64
65478;SHT31;53678;39.642;22.430;2024-02-21T06:47:42;10.96;84.80
65478;SHT31;53678;39.642;22.430;2024-02-21T06:50:09;11.00;84.95
65478;SHT31;53678;39.642;22.430;2024-02-21T06:52:36;11.18;85.13
65478;SHT31;53678;39.642;22.430;2024-02-21T06:55:02;11.23;84.68
65478;SHT31;53678;39.642;22.430;2024-02-21T06:57:29;11.22;84.15
65478;SHT31;53678;39.642;22.430;2024-02-21T06:59:54;11.44;84.00
65478;SHT31;53678;39.642;22.430;2024-02-21T07:02:21;11.47;83.49
65478;SHT31;53678;39.642;22.430;2024-02-21T07:04:47;11.57;83.18
65478;SHT31;53678;39.642;22.430;2024-02-21T07:07:14;11.68;83.14
65478;SHT31;53678;39.642;22.430;2024-02-21T07:09:39;11.92;81.98
65478;SHT31;53678;39.642;22.430;2024-02-21T07:12:05;12.05;81.08
65478;SHT31;53678;39.642;22.430;2024-02-21T07:14:35;12.19;80.72
65478;SHT31;53678;39.642;22.430;2024-02-21T07:17:01;12.24;80.63
65478;SHT31;53678;39.642;22.430;2024-02-21T07:19:27;12.26;79.74
65478;SHT31;53678;39.642;22.430;2024-02-21T07:21:52;12.25;80.13
65478;SHT31;53678;39.642;22.430;2024-02-21T07:24:18;12.22;79.61
65478;SHT31;53678;39.642;22.430;2024-02-21T07:26:44;12.06;79.94
65478;SHT31;53678;39.642;22.430;2024-02-21T07:29:10;11.95;80.76
65478;SHT31;53678;39.642;22.430;2024-02-21T07:31:42;12.16;80.38
65478;SHT31;53678;39.642;22.430;2024-02-21T07:34:08;12.30;79.46
65478;SHT31;53678;39.642;22.430;2024-02-21T07:36:34;12.26;79.17
65478;SHT31;53678;39.642;22.430;2024-02-21T07:39:00;12.46;79.72
65478;SHT31;53678;39.642;22.430;2024-02-21T07:41:26;12.50;79.13
65478;SHT31;53678;39.642;22.430;2024-02-21T07:43:52;12.52;78.92
65478;SHT31;53678;39.642;22.430;2024-02-21T07:46:18;12.64;79.07
65478;SHT31;53678;39.642;22.430;2024-02-21T07:48:45;12.43;79.71
65478;SHT31;53678;39.642;22.430;2024-02-21T07:51:13;12.35;79.74
65478;SHT31;53678;39.642;22.430;2024-02-21T07:53:39;12.47;79.74
65478;SHT31;53678;39.642;22.430;2024-02-21T07:56:13;12.73;79.14
65478;SHT31;53678;39.642;22.430;2024-02-21T07:58:40;13.07;78.77
65478;SHT31;53678;39.642;22.430;2024-02-21T08:01:06;13.28;77.30
65478;SHT31;53678;39.642;22.430;2024-02-21T08:03:31;13.70;76.67
65478;SHT31;53678;39.642;22.430;2024-02-21T08:05:57;13.74;75.82
65478;SHT31;53678;39.642;22.430;2024-02-21T08:08:23;13.67;76.60
65478;SHT31;53678;39.642;22.430;2024-02-21T08:10:49;13.94;74.18
65478;SHT31;53678;39.642;22.430;2024-02-21T08:13:15;13.93;74.80
65478;SHT31;53678;39.642;22.430;2024-02-21T08:15:41;12.64;78.37
65478;SHT31;53678;39.642;22.430;2024-02-21T08:18:08;12.87;78.10
65478;SHT31;53678;39.642;22.430;2024-02-21T08:20:33;13.38;76.72
65478;SHT31;53678;39.642;22.430;2024-02-21T08:22:59;13.65;74.87
65478;SHT31;53678;39.642;22.430;2024-02-21T08:25:26;13.43;75.26
65478;SHT31;53678;39.642;22.430;2024-02-21T08:27:54;13.43;75.11
65478;SHT31;53678;39.642;22.430;2024-02-21T08:30:20;13.83;74.17
65478;SHT31;53678;39.642;22.430;2024-02-21T08:32:46;13.73;74.12
65478;SHT31;53678;39.642;22.430;2024-02-21T08:35:12;14.04;73.44
65478;SHT31;53678;39.642;22.430;2024-02-21T08:37:38;14.16;73.82
65478;SHT31;53678;39.642;22.430;2024-02-21T08:40:04;14.06;72.64
65478;SHT31;53678;39.642;22.430;2024-02-21T08:42:35;13.91;73.39
65478;SHT31;53678;39.642;22.430;2024-02-21T08:45:03;14.30;73.00
65478;SHT31;53678;39.642;22.430;2024-02-21T08:47:28;14.45;72.78
65478;SHT31;53678;39.642;22.430;2024-02-21T08:49:54;14.48;72.13
65478;SHT31;53678;39.642;22.430;2024-02-21T08:52:19;14.31;73.46
65478;SHT31;53678;39.642;22.430;2024-02-21T08:54:45;14.46;72.51
65478;SHT31;53678;39.642;22.430;2024-02-21T08:57:11;14.46;72.47
65478;SHT31;53678;39.642;22.430;2024-02-21T08:59:40;14.40;72.97
65478;SHT31;53678;39.642;22.430;2024-02-21T09:02:06;13.97;73.01
65478;SHT31;53678;39.642;22.430;2024-02-21T09:04:33;14.10;73.73
65478;SHT31;53678;39.642;22.430;2024-02-21T09:07:00;14.31;72.19
65478;SHT31;53678;39.642;22.430;2024-02-21T09:09:25;13.97;72.70
65478;SHT31;53678;39.642;22.430;2024-02-21T09:11:53;13.96;72.67
65478;SHT31;53678;39.642;22.430;2024-02-21T09:14:19;13.94;72.15
65478;SHT31;53678;39.642;22.430;2024-02-21T09:16:46;13.39;74.17
65478;SHT31;53678;39.642;22.430;2024-02-21T09:19:11;13.89;73.82
65478;SHT31;53678;39.642;22.430;2024-02-21T09:21:39;13.93;74.73
65478;SHT31;53678;39.642;22.430;2024-02-21T09:24:05;14.37;72.85
65478;SHT31;53678;39.642;22.430;2024-02-21T09:26:31;14.85;71.99
65478;SHT31;53678;39.642;22.430;2024-02-21T09:28:57;15.04;70.20
65478;SHT31;53678;39.642;22.430;2024-02-21T09:31:23;15.06;70.36
65478;SHT31;53678;39.642;22.430;2024-02-21T09:33:48;14.82;70.77
65478;SHT31;53678;39.642;22.430;2024-02-21T09:36:15;14.51;70.94
65478;SHT31;53678;39.642;22.430;2024-02-21T09:38:41;14.57;71.54
65478;SHT31;53678;39.642;22.430;2024-02-21T09:41:18;14.10;72.57
65478;SHT31;53678;39.642;22.430;2024-02-21T09:43:44;14.11;72.99
65478;SHT31;53678;39.642;22.430;2024-02-21T09:46:17;13.99;72.60
65478;SHT31;53678;39.642;22.430;2024-02-21T09:51:53;14.11;71.79
65478;SHT31;53678;39.642;22.430;2024-02-21T09:54:22;14.28;70.16
65478;SHT31;53678;39.642;22.430;2024-02-21T09:56:47;14.68;69.50
65478;SHT31;53678;39.642;22.430;2024-02-21T09:59:16;14.61;69.24
65478;SHT31;53678;39.642;22.430;2024-02-21T10:01:43;14.64;69.31
65478;SHT31;53678;39.642;22.430;2024-02-21T10:04:10;14.85;67.17
65478;SHT31;53678;39.642;22.430;2024-02-21T10:06:35;15.07;66.95
65478;SHT31;53678;39.642;22.430;2024-02-21T10:09:03;15.29;68.62
65478;SHT31;53678;39.642;22.430;2024-02-21T10:11:29;15.54;68.55
65478;SHT31;53678;39.642;22.430;2024-02-21T10:14:08;15.82;68.02
65478;SHT31;53678;39.642;22.430;2024-02-21T10:16:34;15.94;66.64
65478;SHT31;53678;39.642;22.430;2024-02-21T10:19:00;16.05;66.46
65478;SHT31;53678;39.642;22.430;2024-02-21T10:21:25;16.05;64.97
65478;SHT31;53678;39.642;22.430;2024-02-21T10:23:52;15.69;66.21
65478;SHT31;53678;39.642;22.430;2024-02-21T10:26:19;15.43;66.93
65478;SHT31;53678;39.642;22.430;2024-02-21T10:28:45;15.29;67.91
65478;SHT31;53678;39.642;22.430;2024-02-21T10:31:23;15.44;67.13
65478;SHT31;53678;39.642;22.430;2024-02-21T10:33:59;15.57;67.00
65478;SHT31;53678;39.642;22.430;2024-02-21T10:36:28;15.33;67.61
65478;SHT31;53678;39.642;22.430;2024-02-21T10:38:55;14.93;68.70
65478;SHT31;53678;39.642;22.430;2024-02-21T10:41:21;14.73;69.28
65478;SHT31;53678;39.642;22.430;2024-02-21T10:43:52;14.68;69.79
65478;SHT31;53678;39.642;22.430;2024-02-21T10:46:23;14.65;70.06
65478;SHT31;53678;39.642;22.430;2024-02-21T10:49:07;14.62;69.78
65478;SHT31;53678;39.642;22.430;2024-02-21T10:51:37;14.65;70.22
65478;SHT31;53678;39.642;22.430;2024-02-21T10:57:12;14.62;70.78
65478;SHT31;53678;39.642;22.430;2024-02-21T10:59:39;14.82;70.14
65478;SHT31;53678;39.642;22.430;2024-02-21T11:02:06;14.93;69.86
65478;SHT31;53678;39.642;22.430;2024-02-21T11:04:33;14.92;69.92
65478;SHT31;53678;39.642;22.430;2024-02-21T11:07:05;15.14;68.82
65478;SHT31;53678;39.642;22.430;2024-02-21T11:09:32;15.26;68.91
65478;SHT31;53678;39.642;22.430;2024-02-21T11:11:58;15.44;67.13
65478;SHT31;53678;39.642;22.430;2024-02-21T11:14:28;15.24;68.26
65478;SHT31;53678;39.642;22.430;2024-02-21T11:16:54;15.64;66.96
65478;SHT31;53678;39.642;22.430;2024-02-21T11:19:23;15.84;66.23
65478;SHT31;53678;39.642;22.430;2024-02-21T11:21:50;15.65;66.07
65478;SHT31;53678;39.642;22.430;2024-02-21T11:24:32;14.86;67.24
65478;SHT31;53678;39.642;22.430;2024-02-21T11:27:15;15.06;67.43
65478;SHT31;53678;39.642;22.430;2024-02-21T11:29:48;15.43;65.96
65478;SHT31;53678;39.642;22.430;2024-02-21T11:32:19;15.47;65.11
65478;SHT31;53678;39.642;22.430;2024-02-21T11:35:00;15.27;65.46
65478;SHT31;53678;39.642;22.430;2024-02-21T11:37:35;15.24;65.72
65478;SHT31;53678;39.642;22.430;2024-02-21T11:40:06;15.34;65.44
65478;SHT31;53678;39.642;22.430;2024-02-21T11:42:35;15.26;65.55
65478;SHT31;53678;39.642;22.430;2024-02-21T11:45:01;15.36;65.42
65478;SHT31;53678;39.642;22.430;2024-02-21T11:47:28;15.43;64.59
65478;SHT31;53678;39.642;22.430;2024-02-21T11:49:54;15.27;64.55
65478;SHT31;53678;39.642;22.430;2024-02-21T11:52:25;15.46;64.39
65478;SHT31;53678;39.642;22.430;2024-02-21T11:54:54;15.48;64.47
65478;SHT31;53678;39.642;22.430;2024-02-21T11:57:22;15.82;63.84
65478;SHT31;53678;39.642;22.430;2024-02-21T11:59:54;15.58;62.93
65478;SHT31;53678;39.642;22.430;2024-02-21T12:02:20;15.22;63.88
65478;SHT31;53678;39.642;22.430;2024-02-21T12:04:46;15.64;63.73
65478;SHT31;53678;39.642;22.430;2024-02-21T12:07:14;15.64;62.82
65478;SHT31;53678;39.642;22.430;2024-02-21T12:09:41;15.41;62.95
65478;SHT31;53678;39.642;22.430;2024-02-21T12:12:07;15.61;61.89
65478;SHT31;53678;39.642;22.430;2024-02-21T12:14:35;15.07;62.33
65478;SHT31;53678;39.642;22.430;2024-02-21T12:17:01;14.14;66.36
65478;SHT31;53678;39.642;22.430;2024-02-21T12:19:30;14.65;65.43
65478;SHT31;53678;39.642;22.430;2024-02-21T12:21:58;14.93;65.09
65478;SHT31;53678;39.642;22.430;2024-02-21T12:24:25;15.03;64.27
65478;SHT31;53678;39.642;22.430;2024-02-21T12:26:52;15.26;63.90
65478;SHT31;53678;39.642;22.430;2024-02-21T12:29:21;15.26;63.42
65478;SHT31;53678;39.642;22.430;2024-02-21T12:31:48;15.27;63.00
65478;SHT31;53678;39.642;22.430;2024-02-21T12:34:15;15.23;63.91
65478;SHT31;53678;39.642;22.430;2024-02-21T12:36:45;15.38;64.04
65478;SHT31;53678;39.642;22.430;2024-02-21T12:39:13;15.31;63.86
65478;SHT31;53678;39.642;22.430;2024-02-21T12:41:40;15.37;63.91
65478;SHT31;53678;39.642;22.430;2024-02-21T12:44:07;15.74;63.44
65478;SHT31;53678;39.642;22.430;2024-02-21T12:46:33;15.87;62.04
65478;SHT31;53678;39.642;22.430;2024-02-21T12:49:00;15.99;62.02
65478;SHT31;53678;39.642;22.430;2024-02-21T12:51:27;16.12;61.56
65478;SHT31;53678;39.642;22.430;2024-02-21T12:53:53;15.85;61.84
65478;SHT31;53678;39.642;22.430;2024-02-21T12:56:19;15.82;62.13
65478;SHT31;53678;39.642;22.430;2024-02-21T12:58:45;15.79;62.31
65478;SHT31;53678;39.642;22.430;2024-02-21T13:01:11;16.13;62.40
65478;SHT31;53678;39.642;22.430;2024-02-21T13:03:37;16.20;62.09
65478;SHT31;53678;39.642;22.430;2024-02-21T13:06:04;16.39;62.15
65478;SHT31;53678;39.642;22.430;2024-02-21T13:08:29;16.40;60.88
65478;SHT31;53678;39.642;22.430;2024-02-21T13:10:55;16.09;61.67
65478;SHT31;53678;39.642;22.430;2024-02-21T13:13:21;15.81;62.50
65478;SHT31;53678;39.642;22.430;2024-02-21T13:15:47;15.57;62.35
65478;SHT31;53678;39.642;22.430;2024-02-21T13:18:12;15.40;62.81
65478;SHT31;53678;39.642;22.430;2024-02-21T13:20:38;15.13;66.02
65478;SHT31;53678;39.642;22.430;2024-02-21T13:23:04;15.02;67.63
65478;SHT31;53678;39.642;22.430;2024-02-21T13:25:30;14.76;68.25
65478;SHT31;53678;39.642;22.430;2024-02-21T13:27:56;14.58;68.78
65478;SHT31;53678;39.642;22.430;2024-02-21T13:30:22;14.38;69.43
65478;SHT31;53678;39.642;22.430;2024-02-21T13:32:48;14.30;70.32
65478;SHT31;53678;39.642;22.430;2024-02-21T13:35:14;14.41;69.36
65478;SHT31;53678;39.642;22.430;2024-02-21T13:37:41;14.54;70.14
65478;SHT31;53678;39.642;22.430;2024-02-21T13:40:07;14.42;70.22
65478;SHT31;53678;39.642;22.430;2024-02-21T13:42:37;14.46;70.28
65478;SHT31;53678;39.642;22.430;2024-02-21T13:45:07;14.31;70.97
65478;SHT31;53678;39.642;22.430;2024-02-21T13:47:34;14.11;70.78
65478;SHT31;53678;39.642;22.430;2024-02-21T13:50:02;14.03;70.54
65478;SHT31;53678;39.642;22.430;2024-02-21T13:52:30;13.99;70.77
65478;SHT31;53678;39.642;22.430;2024-02-21T13:54:56;14.13;70.84
65478;SHT31;53678;39.642;22.430;2024-02-21T13:57:22;13.94;71.54
65478;SHT31;53678;39.642;22.430;2024-02-21T13:59:50;14.10;71.71
65478;SHT31;53678;39.642;22.430;2024-02-21T14:02:17;14.09;71.41
65478;SHT31;53678;39.642;22.430;2024-02-21T14:04:42;14.03;71.65
65478;SHT31;53678;39.642;22.430;2024-02-21T14:07:08;13.94;71.89
65478;SHT31;53678;39.642;22.430;2024-02-21T14:09:34;13.82;72.06
65478;SHT31;53678;39.642;22.430;2024-02-21T14:12:00;13.94;71.86
65478;SHT31;53678;39.642;22.430;2024-02-21T14:14:26;13.93;71.69
65478;SHT31;53678;39.642;22.430;2024-02-21T14:16:52;13.97;71.66
65478;SHT31;53678;39.642;22.430;2024-02-21T14:19:17;13.86;72.03
65478;SHT31;53678;39.642;22.430;2024-02-21T14:21:44;13.87;72.32
65478;SHT31;53678;39.642;22.430;2024-02-21T14:24:11;13.86;71.88
65478;SHT31;53678;39.642;22.430;2024-02-21T14:26:37;13.97;72.19
65478;SHT31;53678;39.642;22.430;2024-02-21T14:29:05;14.10;71.36
65478;SHT31;53678;39.642;22.430;2024-02-21T14:31:33;14.03;71.46
65478;SHT31;53678;39.642;22.430;2024-02-21T14:33:59;14.06;71.07
65478;SHT31;53678;39.642;22.430;2024-02-21T14:36:26;14.00;69.67
65478;SHT31;53678;39.642;22.430;2024-02-21T14:38:52;14.01;69.60
65478;SHT31;53678;39.642;22.430;2024-02-21T14:41:18;13.89;69.48
65478;SHT31;53678;39.642;22.430;2024-02-21T14:43:44;13.99;69.53
65478;SHT31;53678;39.642;22.430;2024-02-21T14:46:12;14.00;69.26
65478;SHT31;53678;39.642;22.430;2024-02-21T14:48:38;13.97;69.03
65478;SHT31;53678;39.642;22.430;2024-02-21T14:51:04;13.94;69.61
65478;SHT31;53678;39.642;22.430;2024-02-21T14:53:30;14.07;69.37
65478;SHT31;53678;39.642;22.430;2024-02-21T14:55:56;14.10;68.89
65478;SHT31;53678;39.642;22.430;2024-02-21T14:58:23;14.11;69.46
65478;SHT31;53678;39.642;22.430;2024-02-21T15:00:50;13.99;69.77
65478;SHT31;53678;39.642;22.430;2024-02-21T15:03:16;14.13;69.70
65478;SHT31;53678;39.642;22.430;2024-02-21T15:05:45;13.99;69.81
65478;SHT31;53678;39.642;22.430;2024-02-21T15:08:11;13.99;69.80
65478;SHT31;53678;39.642;22.430;2024-02-21T15:10:37;14.04;69.78
65478;SHT31;53678;39.642;22.430;2024-02-21T15:13:04;13.96;70.15
65478;SHT31;53678;39.642;22.430;2024-02-21T15:15:30;13.99;70.19
65478;SHT31;53678;39.642;22.430;2024-02-21T15:17:56;13.97;70.22
65478;SHT31;53678;39.642;22.430;2024-02-21T15:20:22;13.97;70.86
65478;SHT31;53678;39.642;22.430;2024-02-21T15:22:47;13.89;70.91
65478;SHT31;53678;39.642;22.430;2024-02-21T15:25:14;13.83;71.13